Time;durP1;ratioP1;P1;durP2;ratioP2;P2;SDS_P1;SDS_P2;PMS_P1;PMS_P2;Temp;Humidity;BMP_temperature;BMP_pressure;BME280_temperature;BME280_humidity;BME280_pressure;Samples;Min_cycle;Max_cycle;Signal;HPM_P1;HPM_P2
2021/12/01 00:02:13;;;;;;;10.52;5.82;;;8.60;99.90;;;;;;5049850;28;20036;-84
2021/12/01 00:04:38;;;;;;;10.63;5.43;;;8.60;99.90;;;;;;5067342;28;20060;-83
2021/12/01 00:07:06;;;;;;;9.40;5.82;;;9.00;99.90;;;;;;5066814;28;20127;-83
2021/12/01 00:09:32;;;;;;;12.70;6.10;;;10.40;99.90;;;;;;5067990;28;20474;-84
2021/12/01 00:11:58;;;;;;;8.70;5.45;;;8.80;99.90;;;;;;5050068;28;20072;-83
2021/12/01 00:14:24;;;;;;;13.18;5.82;;;9.30;99.90;;;;;;5050811;28;20141;-83
2021/12/01 00:16:50;;;;;;;10.13;5.75;;;8.90;99.90;;;;;;5085259;28;20058;-84
2021/12/01 00:19:15;;;;;;;10.23;5.50;;;8.90;99.90;;;;;;5084358;28;20105;-84
2021/12/01 00:21:41;;;;;;;10.35;6.22;;;10.40;99.90;;;;;;5034021;28;20044;-84
2021/12/01 00:24:07;;;;;;;10.70;6.40;;;10.10;99.90;;;;;;5066306;28;20048;-84
2021/12/01 00:26:33;;;;;;;14.65;7.07;;;9.00;99.90;;;;;;5085749;28;20131;-84
2021/12/01 00:28:58;;;;;;;14.48;7.32;;;9.10;99.90;;;;;;5066346;28;20078;-84
2021/12/01 00:31:24;;;;;;;12.43;7.20;;;9.10;99.90;;;;;;5067185;28;20105;-84
2021/12/01 00:33:50;;;;;;;13.23;7.78;;;9.40;99.90;;;;;;5085153;28;20066;-84
2021/12/01 00:36:16;;;;;;;14.13;8.63;;;9.10;99.90;;;;;;5066305;28;20052;-84
2021/12/01 00:38:43;;;;;;;15.63;8.27;;;9.20;99.90;;;;;;5067059;28;20054;-83
2021/12/01 00:41:10;;;;;;;17.00;9.43;;;9.20;99.90;;;;;;5065777;28;20086;-84
2021/12/01 00:43:38;;;;;;;18.20;9.25;;;10.00;99.90;;;;;;5066640;28;20160;-84
2021/12/01 00:46:22;;;;;;;20.05;8.60;;;9.80;99.90;;;;;;5084371;28;20550;-84
2021/12/01 00:48:48;;;;;;;19.60;10.07;;;9.50;99.90;;;;;;5069600;28;20043;-84
2021/12/01 00:51:16;;;;;;;15.82;9.95;;;9.40;99.90;;;;;;5066398;28;20522;-84
2021/12/01 00:53:42;;;;;;;17.60;9.80;;;11.30;99.90;;;;;;5065759;28;20055;-83
2021/12/01 00:56:09;;;;;;;17.20;10.48;;;9.40;99.90;;;;;;5066968;28;20075;-84
2021/12/01 00:58:35;;;;;;;15.05;9.18;;;10.80;99.90;;;;;;5065663;28;20123;-84
2021/12/01 01:01:02;;;;;;;16.98;10.20;;;10.70;99.90;;;;;;5050414;28;20040;-84
2021/12/01 01:03:30;;;;;;;20.48;11.23;;;9.50;99.90;;;;;;5084554;28;20254;-83
2021/12/01 01:05:56;;;;;;;19.95;9.93;;;9.50;99.90;;;;;;5049790;28;20058;-84
2021/12/01 01:08:22;;;;;;;17.70;9.65;;;9.50;99.90;;;;;;5050261;28;20052;-84
2021/12/01 01:16:25;;;;;;;15.57;9.10;;;9.60;99.90;;;;;;5084933;28;20047;-84
2021/12/01 01:19:05;;;;;;;22.67;9.88;;;9.60;99.90;;;;;;5084421;28;20075;-84
2021/12/01 01:21:35;;;;;;;19.70;9.63;;;10.20;99.90;;;;;;5066886;28;20054;-84
2021/12/01 01:24:02;;;;;;;25.63;9.43;;;9.60;99.90;;;;;;5065642;28;20381;-85
2021/12/01 01:26:28;;;;;;;14.10;8.80;;;9.60;99.90;;;;;;5066616;28;20047;-84
2021/12/01 01:28:54;;;;;;;19.35;8.05;;;9.60;99.90;;;;;;5049128;28;20104;-85
2021/12/01 01:31:20;;;;;;;14.98;9.00;;;10.90;99.90;;;;;;5050314;28;20032;-85
2021/12/01 01:33:47;;;;;;;19.27;9.05;;;10.80;99.90;;;;;;5066385;28;20501;-85
2021/12/01 01:36:13;;;;;;;17.70;8.18;;;11.00;99.90;;;;;;5065532;28;20044;-84
2021/12/01 01:38:40;;;;;;;14.35;7.60;;;9.70;99.90;;;;;;5066434;28;20080;-84
2021/12/01 01:41:08;;;;;;;21.25;8.40;;;11.20;99.90;;;;;;5065973;28;20056;-85
2021/12/01 01:43:35;;;;;;;13.55;6.50;;;9.70;99.90;;;;;;5050256;28;20141;-84
2021/12/01 01:46:02;;;;;;;14.45;6.65;;;9.70;99.90;;;;;;5066723;28;20090;-85
2021/12/01 01:48:32;;;;;;;15.60;6.75;;;10.80;99.90;;;;;;5071939;28;20055;-84
2021/12/01 01:51:04;;;;;;;15.70;6.60;;;9.70;99.90;;;;;;5071254;28;20093;-85
2021/12/01 01:53:31;;;;;;;11.07;6.63;;;9.70;99.90;;;;;;5070884;28;20499;-85
2021/12/01 01:55:59;;;;;;;16.05;6.22;;;9.70;99.90;;;;;;5074457;28;20090;-85
2021/12/01 01:58:27;;;;;;;15.25;5.95;;;10.40;99.90;;;;;;5074644;28;20044;-85
2021/12/01 02:01:09;;;;;;;8.15;4.47;;;10.50;99.90;;;;;;5075847;28;20110;-85
2021/12/01 02:03:43;;;;;;;11.73;5.30;;;9.80;99.90;;;;;;5071121;28;20064;-84
2021/12/01 02:06:11;;;;;;;15.50;4.13;;;11.40;99.90;;;;;;5069144;28;20431;-85
2021/12/01 02:08:40;;;;;;;12.32;4.10;;;10.40;99.90;;;;;;5069913;28;20047;-85
2021/12/01 02:11:12;;;;;;;13.35;3.90;;;9.80;99.90;;;;;;5052517;28;20036;-85
2021/12/01 02:13:41;;;;;;;11.60;2.85;;;9.80;99.90;;;;;;5070174;28;20040;-85
2021/12/01 02:16:07;;;;;;;6.85;2.80;;;10.40;99.90;;;;;;5069596;28;20048;-85
2021/12/01 02:18:33;;;;;;;11.55;2.35;;;10.40;99.90;;;;;;5069940;28;20090;-86
2021/12/01 02:21:13;;;;;;;8.82;2.05;;;9.80;99.90;;;;;;5069964;28;20442;-85
2021/12/01 02:23:48;;;;;;;10.05;2.10;;;11.50;99.90;;;;;;5086732;28;20048;-85
2021/12/01 02:26:16;;;;;;;3.28;1.52;;;9.80;99.90;;;;;;5053106;28;20056;-85
2021/12/01 02:28:43;;;;;;;10.05;2.00;;;10.40;99.90;;;;;;5087027;28;20082;-85
2021/12/01 02:31:09;;;;;;;5.05;1.50;;;9.90;99.90;;;;;;5052693;28;20523;-85
2021/12/01 02:33:35;;;;;;;7.25;1.35;;;9.90;99.90;;;;;;5069697;28;20196;-84
2021/12/01 02:36:02;;;;;;;7.82;1.27;;;9.90;99.90;;;;;;5051977;28;20040;-85
2021/12/01 02:38:28;;;;;;;4.00;0.77;;;9.80;99.90;;;;;;5053161;28;20575;-85
2021/12/01 02:40:54;;;;;;;2.20;0.73;;;10.10;99.90;;;;;;5086485;28;20042;-86
2021/12/01 02:43:24;;;;;;;1.88;0.43;;;10.60;99.90;;;;;;5069457;28;20036;-85
2021/12/01 02:45:54;;;;;;;1.85;0.65;;;9.80;99.90;;;;;;5052153;28;20093;-86
2021/12/01 02:48:21;;;;;;;0.85;0.30;;;9.90;99.90;;;;;;5052345;28;20483;-86
2021/12/01 02:50:49;;;;;;;3.25;0.90;;;9.80;99.90;;;;;;5052566;28;20059;-85
2021/12/01 02:53:15;;;;;;;2.35;0.50;;;9.80;99.90;;;;;;5086212;28;20048;-86
2021/12/01 02:55:56;;;;;;;4.03;0.57;;;9.70;99.90;;;;;;5069035;28;20040;-86
2021/12/01 02:58:23;;;;;;;5.28;0.93;;;9.80;99.90;;;;;;5067928;28;20132;-85
2021/12/01 03:00:52;;;;;;;5.85;0.80;;;9.80;99.90;;;;;;5052871;28;20048;-86
2021/12/01 03:03:19;;;;;;;3.28;0.80;;;9.80;99.90;;;;;;5068047;28;20121;-85
2021/12/01 03:05:49;;;;;;;1.77;0.65;;;9.80;99.90;;;;;;5051879;28;20050;-86
2021/12/01 03:08:17;;;;;;;10.52;0.63;;;11.40;99.90;;;;;;5068492;28;20124;-86
2021/12/01 03:10:51;;;;;;;5.47;0.63;;;10.70;99.90;;;;;;5067323;28;20047;-85
2021/12/01 03:13:18;;;;;;;5.47;0.77;;;10.40;99.90;;;;;;5068590;28;20048;-85
2021/12/01 03:15:44;;;;;;;9.60;0.95;;;9.80;99.90;;;;;;5068081;28;20134;-85
2021/12/01 03:18:11;;;;;;;3.25;0.60;;;9.80;99.90;;;;;;5068698;28;20044;-85
2021/12/01 03:20:38;;;;;;;1.92;0.40;;;9.90;99.90;;;;;;5068306;28;20040;-85
2021/12/01 03:23:05;;;;;;;6.28;1.30;;;10.60;99.90;;;;;;5067526;28;20048;-85
2021/12/01 03:25:31;;;;;;;5.82;0.50;;;9.90;99.90;;;;;;5068460;28;20139;-85
2021/12/01 03:27:56;;;;;;;3.08;0.60;;;10.20;99.90;;;;;;5067611;28;20039;-86
2021/12/01 03:30:22;;;;;;;1.73;0.40;;;10.20;99.90;;;;;;5035368;28;20500;-87
2021/12/01 03:32:48;;;;;;;3.67;0.52;;;9.90;99.90;;;;;;5050618;28;20055;-86
2021/12/01 03:35:15;;;;;;;2.38;0.50;;;9.90;99.90;;;;;;5086491;28;20093;-85
2021/12/01 03:37:43;;;;;;;7.28;0.70;;;10.20;99.90;;;;;;5068150;28;20156;-86
2021/12/01 03:40:11;;;;;;;4.60;0.40;;;10.60;99.90;;;;;;5051126;28;20059;-86
2021/12/01 03:42:37;;;;;;;4.72;0.93;;;9.90;99.90;;;;;;5068103;28;20044;-86
2021/12/01 03:45:04;;;;;;;9.05;0.65;;;10.80;99.90;;;;;;5084950;28;20130;-85
2021/12/01 03:47:30;;;;;;;5.50;0.90;;;9.90;99.90;;;;;;5068677;28;20109;-85
2021/12/01 03:49:56;;;;;;;7.57;1.13;;;9.90;99.90;;;;;;5066594;28;20445;-86
2021/12/01 03:52:24;;;;;;;7.15;1.20;;;10.50;99.90;;;;;;5051257;28;20071;-86
2021/12/01 03:54:51;;;;;;;5.28;0.93;;;10.10;99.90;;;;;;5050859;28;20054;-86
2021/12/01 03:57:17;;;;;;;9.88;1.42;;;10.50;99.90;;;;;;5050143;28;20082;-86
2021/12/01 03:59:43;;;;;;;5.63;0.70;;;11.10;99.90;;;;;;5068030;28;20460;-85
2021/12/01 04:02:09;;;;;;;11.50;1.30;;;9.90;99.90;;;;;;5066687;28;20059;-85
2021/12/01 04:04:35;;;;;;;11.80;1.38;;;9.90;99.90;;;;;;5051159;28;20408;-85
2021/12/01 04:07:02;;;;;;;5.53;0.70;;;9.90;99.90;;;;;;5067213;28;20040;-86
2021/12/01 04:09:29;;;;;;;12.13;1.30;;;9.90;99.90;;;;;;5068131;28;20044;-86
2021/12/01 04:11:55;;;;;;;12.35;1.23;;;9.90;99.90;;;;;;5067315;28;20055;-86
2021/12/01 04:14:21;;;;;;;10.43;1.38;;;10.00;99.90;;;;;;5066685;28;20048;-85
2021/12/01 04:16:47;;;;;;;10.82;1.75;;;10.40;99.90;;;;;;5042230;28;20691;-86
2021/12/01 04:19:13;;;;;;;13.90;1.35;;;9.90;99.90;;;;;;5075783;28;20051;-86
2021/12/01 04:21:39;;;;;;;12.45;1.73;;;9.80;99.90;;;;;;5076952;28;20043;-86
2021/12/01 04:24:06;;;;;;;8.18;1.38;;;10.10;99.90;;;;;;5073273;28;20051;-86
2021/12/01 04:26:33;;;;;;;5.28;1.48;;;9.80;99.90;;;;;;5055286;28;20475;-85
2021/12/01 04:29:00;;;;;;;13.60;1.20;;;10.70;99.90;;;;;;5069692;28;20533;-87
2021/12/01 04:31:29;;;;;;;9.23;1.08;;;10.40;99.90;;;;;;5072235;28;20108;-86
2021/12/01 04:33:55;;;;;;;4.38;0.85;;;11.10;99.90;;;;;;5085675;28;20382;-86
2021/12/01 04:36:24;;;;;;;3.40;0.80;;;10.40;99.90;;;;;;5032671;28;20047;-87
2021/12/01 04:38:50;;;;;;;2.88;0.70;;;10.60;99.90;;;;;;5034435;28;20040;-87
2021/12/01 04:41:16;;;;;;;3.65;0.95;;;9.70;99.90;;;;;;5050074;28;20085;-87
2021/12/01 04:43:42;;;;;;;4.38;0.70;;;10.50;99.90;;;;;;5066831;28;20495;-87
2021/12/01 04:46:08;;;;;;;5.63;0.45;;;10.30;99.90;;;;;;5049830;28;20047;-85
2021/12/01 04:48:34;;;;;;;6.53;0.60;;;10.60;99.90;;;;;;5084151;28;20052;-85
2021/12/01 04:51:00;;;;;;;4.05;0.60;;;11.50;99.90;;;;;;5050419;28;20043;-85
2021/12/01 04:53:27;;;;;;;4.50;0.70;;;12.50;99.90;;;;;;5048802;28;20102;-86
2021/12/01 04:55:54;;;;;;;8.70;0.50;;;9.70;99.90;;;;;;5033965;28;20133;-86
2021/12/01 04:58:20;;;;;;;2.45;0.75;;;9.80;99.90;;;;;;5066721;28;20055;-86
2021/12/01 05:00:46;;;;;;;2.72;0.55;;;10.10;99.90;;;;;;5050310;28;20566;-84
2021/12/01 05:03:12;;;;;;;2.85;0.70;;;9.70;99.90;;;;;;5084699;28;20044;-86
2021/12/01 05:05:38;;;;;;;3.75;0.40;;;10.20;99.90;;;;;;5049699;28;20125;-86
2021/12/01 05:08:04;;;;;;;5.47;0.77;;;9.70;99.90;;;;;;5067288;28;20063;-86
2021/12/01 05:10:30;;;;;;;1.48;0.60;;;9.70;99.90;;;;;;5066204;28;20131;-85
2021/12/01 05:12:56;;;;;;;3.38;0.60;;;10.90;99.90;;;;;;5067599;28;20044;-86
2021/12/01 05:15:22;;;;;;;0.98;0.73;;;9.70;99.90;;;;;;5084190;28;20060;-85
2021/12/01 05:17:49;;;;;;;1.38;0.68;;;9.80;99.90;;;;;;5085131;28;20040;-85
2021/12/01 05:20:16;;;;;;;0.85;0.30;;;9.70;99.90;;;;;;5050005;28;20048;-86
2021/12/01 05:22:43;;;;;;;1.08;0.38;;;9.70;99.90;;;;;;5066338;28;20052;-85
2021/12/01 05:25:09;;;;;;;0.60;0.40;;;9.80;99.90;;;;;;5050541;28;20083;-85
2021/12/01 05:27:35;;;;;;;0.50;0.30;;;10.00;99.90;;;;;;5049032;28;20058;-85
2021/12/01 05:30:01;;;;;;;0.70;0.32;;;8.60;99.90;;;;;;5067807;28;20052;-86
2021/12/01 05:32:27;;;;;;;1.35;0.30;;;10.00;99.90;;;;;;5069407;28;20059;-86
2021/12/01 05:34:52;;;;;;;3.28;0.30;;;10.10;99.90;;;;;;5037854;28;20055;-84
2021/12/01 05:37:18;;;;;;;0.28;0.20;;;10.20;99.90;;;;;;5070365;28;20522;-85
2021/12/01 05:39:45;;;;;;;0.35;0.10;;;9.60;99.90;;;;;;5069668;28;20036;-84
2021/12/01 05:42:12;;;;;;;0.30;0.20;;;9.50;99.90;;;;;;5053981;28;20051;-84
2021/12/01 05:44:39;;;;;;;0.70;0.30;;;9.50;99.90;;;;;;5069090;28;20494;-85
2021/12/01 05:47:06;;;;;;;0.10;0.10;;;10.20;99.90;;;;;;5070336;28;20048;-84
2021/12/01 05:49:32;;;;;;;2.08;0.40;;;9.70;99.90;;;;;;5068935;28;20104;-84
2021/12/01 05:51:59;;;;;;;0.65;0.30;;;10.80;99.90;;;;;;5088935;28;20149;-83
2021/12/01 05:54:26;;;;;;;0.20;0.20;;;11.20;99.90;;;;;;5069847;28;20056;-84
2021/12/01 05:56:52;;;;;;;2.53;0.40;;;9.40;99.90;;;;;;5053082;28;20102;-84
2021/12/01 05:59:17;;;;;;;0.30;0.28;;;9.40;99.90;;;;;;5088453;28;20117;-83
2021/12/01 06:01:43;;;;;;;1.25;0.57;;;9.40;99.90;;;;;;5069140;28;20483;-85
2021/12/01 06:04:09;;;;;;;1.88;0.70;;;9.40;99.90;;;;;;5069773;28;20063;-86
2021/12/01 06:06:35;;;;;;;1.90;0.57;;;10.90;99.90;;;;;;5052049;28;20131;-86
2021/12/01 06:09:00;;;;;;;3.85;0.68;;;9.40;99.90;;;;;;5037304;28;20101;-89
2021/12/01 06:11:26;;;;;;;1.85;0.93;;;9.40;99.90;;;;;;5069796;28;20044;-93
2021/12/01 06:13:53;;;;;;;1.92;0.55;;;9.40;99.90;;;;;;5036096;28;20101;-89
2021/12/01 06:16:24;;;;;;;1.58;0.70;;;11.10;99.90;;;;;;5053439;28;20449;-89
2021/12/01 06:18:51;;;;;;;1.08;0.75;;;9.30;99.90;;;;;;5068606;28;20047;-90
2021/12/01 06:21:17;;;;;;;1.38;0.80;;;10.70;99.90;;;;;;5053178;28;20036;-88
2021/12/01 06:23:45;;;;;;;0.80;0.50;;;9.30;99.90;;;;;;5052014;28;20089;-89
2021/12/01 06:26:11;;;;;;;1.38;0.60;;;10.20;99.90;;;;;;5037414;28;20364;-89
2021/12/01 06:28:38;;;;;;;1.38;0.70;;;10.80;99.90;;;;;;5052253;28;20479;-90
2021/12/01 06:31:04;;;;;;;1.80;0.80;;;10.90;99.90;;;;;;5019418;28;20048;-88
2021/12/01 06:33:29;;;;;;;0.80;0.57;;;9.30;99.90;;;;;;5053307;28;20131;-88
2021/12/01 06:35:55;;;;;;;2.05;0.88;;;9.30;99.90;;;;;;5051987;28;20134;-88
2021/12/01 06:38:21;;;;;;;1.92;0.70;;;10.60;99.90;;;;;;5052711;28;20040;-86
2021/12/01 06:40:48;;;;;;;0.93;0.65;;;9.60;99.90;;;;;;5034557;28;20142;-85
2021/12/01 06:43:14;;;;;;;2.40;0.70;;;9.50;99.90;;;;;;5092575;28;20508;-86
2021/12/01 06:45:40;;;;;;;0.68;0.40;;;10.40;99.90;;;;;;5094325;28;20032;-89
2021/12/01 06:48:06;;;;;;;0.98;0.60;;;9.20;99.90;;;;;;5096744;28;20055;-87
2021/12/01 06:50:33;;;;;;;2.95;0.60;;;9.20;99.90;;;;;;5056934;28;20071;-89
2021/12/01 06:52:59;;;;;;;0.68;0.57;;;9.70;99.90;;;;;;5071903;28;20421;-87
2021/12/01 06:55:25;;;;;;;0.60;0.40;;;9.10;99.90;;;;;;5038311;28;20070;-92
2021/12/01 06:57:51;;;;;;;0.52;0.40;;;9.30;99.90;;;;;;5018287;28;20048;-86
2021/12/01 07:00:18;;;;;;;0.40;0.30;;;10.20;99.90;;;;;;5036464;28;20040;-88
2021/12/01 07:02:45;;;;;;;1.05;0.52;;;9.10;99.90;;;;;;5068216;28;20052;-85
2021/12/01 07:05:12;;;;;;;0.70;0.60;;;9.10;99.90;;;;;;5086373;28;20047;-85
2021/12/01 07:07:38;;;;;;;1.05;0.52;;;9.10;99.90;;;;;;5086685;28;20055;-84
2021/12/01 07:10:07;;;;;;;1.33;0.57;;;9.30;99.90;;;;;;5085452;28;20522;-85
2021/12/01 07:12:33;;;;;;;0.70;0.50;;;9.10;99.90;;;;;;5068646;28;20047;-85
2021/12/01 07:14:59;;;;;;;1.55;0.65;;;10.40;99.90;;;;;;5051466;28;20044;-85
2021/12/01 07:17:24;;;;;;;1.10;0.98;;;9.10;99.90;;;;;;5052050;28;20131;-84
2021/12/01 07:19:50;;;;;;;0.80;0.45;;;9.10;99.90;;;;;;5086458;28;20119;-84
2021/12/01 07:22:16;;;;;;;1.25;0.90;;;9.60;99.90;;;;;;5086222;28;20494;-85
2021/12/01 07:24:43;;;;;;;5.78;1.08;;;9.10;99.90;;;;;;5051462;28;20506;-84
2021/12/01 07:27:09;;;;;;;1.40;0.82;;;9.20;99.90;;;;;;5085161;28;20127;-85
2021/12/01 07:29:35;;;;;;;2.05;0.85;;;9.30;99.90;;;;;;5051660;28;20127;-85
2021/12/01 07:32:02;;;;;;;1.65;0.90;;;9.10;99.90;;;;;;5085694;28;20078;-86
2021/12/01 07:34:27;;;;;;;1.08;0.85;;;9.10;99.90;;;;;;5018547;28;20525;-87
2021/12/01 07:36:53;;;;;;;3.90;1.30;;;10.70;99.90;;;;;;5050480;28;20079;-88
2021/12/01 07:39:22;;;;;;;1.50;1.10;;;9.10;99.90;;;;;;5067342;28;20083;-83
2021/12/01 07:41:48;;;;;;;1.13;0.85;;;10.60;99.90;;;;;;5066209;28;20096;-82
2021/12/01 07:44:14;;;;;;;2.53;1.48;;;9.20;99.90;;;;;;5066838;28;20043;-80
2021/12/01 07:46:42;;;;;;;1.75;1.10;;;9.10;99.90;;;;;;5085080;28;20047;-81
2021/12/01 07:49:08;;;;;;;1.52;1.08;;;9.20;99.90;;;;;;5083159;28;20097;-81
2021/12/01 07:51:34;;;;;;;1.65;1.00;;;9.20;99.90;;;;;;5066834;28;20040;-81
2021/12/01 07:53:59;;;;;;;1.58;1.20;;;9.90;99.90;;;;;;5084040;28;20048;-81
2021/12/01 07:56:25;;;;;;;4.18;1.48;;;10.50;99.90;;;;;;5066844;28;20044;-81
2021/12/01 07:58:51;;;;;;;5.10;1.33;;;9.30;99.90;;;;;;5067545;28;20051;-81
2021/12/01 08:01:16;;;;;;;6.38;1.38;;;9.40;99.90;;;;;;5084795;28;20080;-81
2021/12/01 08:03:42;;;;;;;6.35;1.20;;;9.40;99.90;;;;;;5063939;28;20539;-81
2021/12/01 08:06:08;;;;;;;4.50;1.25;;;10.80;99.90;;;;;;5064019;28;20048;-81
2021/12/01 08:08:34;;;;;;;4.38;1.40;;;9.40;99.90;;;;;;5061853;28;20508;-81
2021/12/01 08:11:00;;;;;;;4.75;1.50;;;9.50;99.90;;;;;;5063087;28;20048;-81
2021/12/01 08:13:25;;;;;;;4.75;1.40;;;9.40;99.90;;;;;;5065515;28;20546;-81
2021/12/01 08:15:51;;;;;;;3.55;1.23;;;9.50;99.90;;;;;;5063623;28;20083;-82
2021/12/01 08:18:18;;;;;;;4.07;1.50;;;9.90;99.90;;;;;;5062796;28;20449;-81
2021/12/01 08:20:44;;;;;;;3.78;1.60;;;9.40;99.90;;;;;;5065494;28;20453;-81
2021/12/01 08:23:10;;;;;;;2.53;1.10;;;9.40;99.90;;;;;;5064231;28;20048;-82
2021/12/01 08:25:36;;;;;;;2.20;1.48;;;9.40;99.90;;;;;;5064010;28;20488;-81
2021/12/01 08:28:02;;;;;;;4.88;1.50;;;9.40;99.90;;;;;;5062446;28;20131;-80
2021/12/01 08:30:29;;;;;;;3.40;1.35;;;9.40;99.90;;;;;;5063381;28;20053;-81
2021/12/01 08:32:55;;;;;;;3.80;1.48;;;9.40;99.90;;;;;;5064305;28;20500;-81
2021/12/01 08:35:22;;;;;;;3.95;1.40;;;9.40;99.90;;;;;;5046384;28;20131;-82
2021/12/01 08:37:48;;;;;;;7.18;2.60;;;9.40;99.90;;;;;;5063666;28;20079;-81
2021/12/01 08:40:15;;;;;;;1.98;1.40;;;9.30;99.90;;;;;;5062423;28;20048;-81
2021/12/01 08:42:42;;;;;;;4.57;0.70;;;9.30;99.90;;;;;;5065163;28;20511;-80
2021/12/01 08:45:08;;;;;;;1.52;0.60;;;9.40;99.90;;;;;;5064298;28;20053;-80
2021/12/01 08:47:34;;;;;;;8.63;0.80;;;9.40;99.90;;;;;;5064825;28;20070;-80
2021/12/01 08:50:00;;;;;;;1.83;0.50;;;9.30;99.90;;;;;;5062573;28;20048;-80
2021/12/01 08:52:26;;;;;;;6.05;1.20;;;9.90;99.90;;;;;;5045515;28;20040;-80
2021/12/01 08:54:52;;;;;;;4.90;0.73;;;9.30;99.90;;;;;;5047410;28;20045;-80
2021/12/01 08:57:18;;;;;;;5.53;1.13;;;9.30;99.90;;;;;;5063503;28;20460;-80
2021/12/01 08:59:45;;;;;;;6.25;0.85;;;9.40;99.90;;;;;;5064014;28;20127;-80
2021/12/01 09:02:11;;;;;;;4.32;1.10;;;9.40;99.90;;;;;;5061034;28;20044;-81
2021/12/01 09:04:39;;;;;;;5.93;1.02;;;9.40;99.90;;;;;;5080089;28;20055;-80
2021/12/01 09:07:05;;;;;;;3.75;1.10;;;9.30;99.90;;;;;;5068489;28;20036;-80
2021/12/01 09:09:45;;;;;;;2.85;0.70;;;9.30;99.90;;;;;;5068151;28;20561;-81
2021/12/01 09:12:11;;;;;;;3.75;0.73;;;9.30;99.90;;;;;;5070136;28;20040;-80
2021/12/01 09:14:36;;;;;;;5.40;0.75;;;9.60;99.90;;;;;;5068429;28;20048;-81
2021/12/01 09:17:03;;;;;;;10.00;0.90;;;9.40;99.90;;;;;;5085434;28;20054;-81
2021/12/01 09:19:35;;;;;;;7.10;0.65;;;9.20;99.90;;;;;;5067995;28;20403;-81
2021/12/01 09:22:05;;;;;;;3.60;0.70;;;9.20;99.90;;;;;;5052014;28;20044;-82
2021/12/01 09:24:31;;;;;;;3.05;0.60;;;9.20;99.90;;;;;;5086066;28;20451;-81
2021/12/01 09:26:58;;;;;;;7.45;0.65;;;9.20;99.90;;;;;;5046604;28;20079;-81
2021/12/01 09:29:27;;;;;;;8.63;0.93;;;9.00;99.90;;;;;;5067589;28;20388;-80
2021/12/01 09:31:54;;;;;;;4.72;0.70;;;9.20;99.90;;;;;;5086310;28;20101;-81
2021/12/01 09:34:20;;;;;;;3.78;1.17;;;9.10;99.90;;;;;;5087663;28;20059;-81
2021/12/01 09:36:46;;;;;;;5.85;0.65;;;8.90;99.90;;;;;;5051966;28;20462;-80
2021/12/01 09:39:11;;;;;;;8.55;0.73;;;9.00;99.90;;;;;;5070655;28;20040;-81
2021/12/01 09:41:37;;;;;;;5.78;0.75;;;9.00;99.90;;;;;;5069636;28;20560;-80
2021/12/01 09:44:03;;;;;;;13.50;2.05;;;9.00;99.90;;;;;;5069453;28;20069;-81
2021/12/01 09:46:30;;;;;;;6.40;0.90;;;9.00;99.90;;;;;;5088505;28;20043;-80
2021/12/01 09:48:56;;;;;;;4.78;0.70;;;10.50;99.90;;;;;;5087161;28;20044;-80
2021/12/01 09:51:22;;;;;;;5.15;0.73;;;9.10;99.90;;;;;;5069619;28;20523;-80
2021/12/01 09:53:49;;;;;;;1.88;0.43;;;9.00;99.90;;;;;;5030139;28;20039;-80
2021/12/01 09:56:15;;;;;;;3.15;0.70;;;9.10;99.90;;;;;;5053020;28;20048;-80
2021/12/01 09:58:51;;;;;;;6.35;0.75;;;9.60;99.90;;;;;;5049135;28;20044;-80
2021/12/01 10:01:26;;;;;;;6.22;0.90;;;9.00;99.90;;;;;;5067422;28;20082;-80
2021/12/01 10:04:00;;;;;;;4.97;0.63;;;9.70;99.90;;;;;;5048957;28;20054;-79
2021/12/01 10:06:27;;;;;;;9.40;0.80;;;9.00;99.90;;;;;;5066126;28;20088;-81
2021/12/01 10:09:08;;;;;;;8.52;1.90;;;9.90;99.90;;;;;;5067725;28;20074;-81
2021/12/01 10:11:40;;;;;;;10.65;0.93;;;9.00;99.90;;;;;;5051310;28;20445;-81
2021/12/01 10:14:19;;;;;;;5.72;0.93;;;9.20;99.90;;;;;;5086753;28;20051;-81
2021/12/01 10:16:50;;;;;;;9.90;1.45;;;9.30;99.90;;;;;;5048934;28;20055;-81
2021/12/01 10:19:19;;;;;;;14.85;1.23;;;9.40;99.90;;;;;;5085159;28;20036;-81
2021/12/01 10:21:48;;;;;;;7.55;1.13;;;9.60;99.90;;;;;;5034802;28;20448;-79
2021/12/01 10:24:30;;;;;;;8.20;1.55;;;9.40;99.90;;;;;;5064627;28;20042;-82
2021/12/01 10:27:05;;;;;;;9.23;1.15;;;9.10;99.90;;;;;;5083340;28;20051;-81
2021/12/01 10:29:38;;;;;;;7.35;0.98;;;9.30;99.90;;;;;;5068355;28;20052;-82
2021/12/01 10:32:07;;;;;;;10.02;1.48;;;9.80;99.90;;;;;;5070693;28;20048;-83
2021/12/01 10:34:47;;;;;;;16.92;1.48;;;9.40;99.90;;;;;;5071834;28;20058;-85
2021/12/01 10:37:26;;;;;;;12.45;1.73;;;10.60;99.90;;;;;;5055375;28;20111;-84
2021/12/01 10:40:08;;;;;;;9.32;0.93;;;9.30;99.90;;;;;;5072729;28;20126;-85
2021/12/01 10:42:49;;;;;;;9.55;1.38;;;9.30;99.90;;;;;;5055352;28;20048;-84
2021/12/01 10:45:18;;;;;;;11.40;1.20;;;9.20;99.90;;;;;;5090178;28;20086;-85
2021/12/01 10:47:44;;;;;;;2.70;0.57;;;9.10;99.90;;;;;;5073902;28;20449;-85
2021/12/01 10:50:12;;;;;;;10.10;0.90;;;9.10;99.90;;;;;;5071244;28;20070;-86
2021/12/01 10:52:49;;;;;;;8.90;1.08;;;9.20;99.90;;;;;;5055449;28;20056;-85
2021/12/01 10:55:21;;;;;;;10.43;1.27;;;9.20;99.90;;;;;;5089301;28;20075;-83
2021/12/01 10:58:03;;;;;;;17.50;2.40;;;11.10;99.90;;;;;;5087984;28;20101;-84
2021/12/01 11:00:43;;;;;;;12.85;1.45;;;9.90;99.90;;;;;;5072378;28;20101;-87
2021/12/01 11:03:15;;;;;;;7.45;0.70;;;9.90;99.90;;;;;;5071282;28;20506;-85
2021/12/01 11:05:46;;;;;;;7.05;0.90;;;8.70;99.90;;;;;;5055719;28;20059;-86
2021/12/01 11:08:16;;;;;;;6.45;0.88;;;9.40;99.90;;;;;;5054941;28;20051;-87
2021/12/01 11:10:48;;;;;;;8.80;0.98;;;8.80;99.90;;;;;;5073825;28;20295;-86
2021/12/01 11:13:15;;;;;;;9.07;1.02;;;9.40;99.90;;;;;;5090827;28;20056;-85
2021/12/01 11:15:45;;;;;;;3.63;0.75;;;11.10;99.90;;;;;;5070836;28;20534;-86
2021/12/01 11:18:20;;;;;;;9.30;0.95;;;9.40;99.90;;;;;;5071995;28;20083;-85
2021/12/01 11:20:51;;;;;;;13.30;1.13;;;7.90;99.90;;;;;;5056570;28;20040;-86
2021/12/01 11:23:16;;;;;;;3.92;0.90;;;9.30;99.90;;;;;;5055022;28;20512;-86
2021/12/01 11:25:46;;;;;;;20.40;1.80;;;10.00;99.90;;;;;;5055390;28;20044;-87
2021/12/01 11:28:15;;;;;;;13.35;1.65;;;9.30;99.90;;;;;;5069973;28;20048;-85
2021/12/01 11:30:44;;;;;;;10.70;1.80;;;10.80;99.90;;;;;;5055777;28;20036;-86
2021/12/01 11:33:13;;;;;;;11.60;1.60;;;9.40;99.90;;;;;;5051987;28;20056;-85
2021/12/01 11:35:41;;;;;;;13.23;1.52;;;9.40;99.90;;;;;;5038335;28;20079;-85
2021/12/01 11:38:09;;;;;;;14.00;1.90;;;10.30;99.90;;;;;;5087942;28;20079;-86
2021/12/01 11:40:35;;;;;;;13.88;2.47;;;9.30;99.90;;;;;;5070141;28;20479;-86
2021/12/01 11:43:02;;;;;;;20.60;2.28;;;10.70;99.90;;;;;;5070442;28;20093;-86
2021/12/01 11:45:28;;;;;;;18.83;2.53;;;9.70;99.90;;;;;;5053318;28;20040;-85
2021/12/01 11:47:55;;;;;;;15.10;1.75;;;8.90;99.90;;;;;;5054608;28;20047;-85
2021/12/01 11:50:30;;;;;;;15.52;2.22;;;8.80;99.90;;;;;;5068470;28;20040;-85
2021/12/01 11:53:03;;;;;;;12.52;1.80;;;8.70;99.90;;;;;;5055585;28;20047;-85
2021/12/01 11:56:01;;;;;;;24.03;2.40;;;8.60;99.90;;;;;;5095356;28;20044;-90
2021/12/01 11:58:52;;;;;;;13.02;1.88;;;8.60;99.90;;;;;;5058606;28;20052;-86
2021/12/01 12:01:21;;;;;;;14.15;2.53;;;8.50;99.90;;;;;;5037698;28;20119;-86
2021/12/01 12:04:01;;;;;;;17.58;2.10;;;8.50;99.90;;;;;;5050981;28;20052;-88
2021/12/01 12:06:29;;;;;;;20.17;2.22;;;8.50;99.90;;;;;;5072837;28;20677;-87
2021/12/01 12:08:57;;;;;;;15.25;1.85;;;8.40;99.90;;;;;;5070485;28;20177;-87
2021/12/01 12:11:34;;;;;;;19.40;2.42;;;8.50;99.90;;;;;;5065623;28;20055;-86
2021/12/01 12:14:03;;;;;;;19.45;1.90;;;8.50;99.90;;;;;;5087004;28;20051;-85
2021/12/01 12:16:29;;;;;;;16.90;1.65;;;8.50;99.90;;;;;;5083209;28;20535;-89
2021/12/01 12:18:56;;;;;;;12.40;1.98;;;8.50;99.90;;;;;;5050056;28;20135;-88
2021/12/01 12:24:13;;;;;;;13.90;2.10;;;8.50;99.90;;;;;;5064001;28;20087;-88
2021/12/01 12:26:44;;;;;;;16.63;1.83;;;8.60;99.90;;;;;;5051085;28;20036;-87
2021/12/01 12:29:16;;;;;;;24.13;1.75;;;8.70;99.90;;;;;;5083814;28;20056;-84
2021/12/01 12:31:45;;;;;;;14.23;1.45;;;8.50;99.90;;;;;;5051584;28;20131;-84
2021/12/01 12:34:20;;;;;;;13.13;1.58;;;9.00;99.90;;;;;;5067213;28;20123;-86
2021/12/01 12:36:53;;;;;;;6.88;1.30;;;9.70;99.90;;;;;;5066059;28;20093;-88
2021/12/01 12:39:21;;;;;;;;;;;8.40;99.90;;;;;;5067932;28;20028;-86
2021/12/01 12:42:04;;;;;;;7.55;1.23;;;8.40;99.90;;;;;;5065630;28;19931;-90
2021/12/01 12:44:51;;;;;;;11.15;1.45;;;8.30;99.90;;;;;;5067650;28;20499;-86
2021/12/01 12:47:22;;;;;;;6.68;0.70;;;8.20;99.90;;;;;;5066733;28;20130;-88
2021/12/01 12:49:54;;;;;;;7.70;1.30;;;8.60;99.90;;;;;;5046418;28;20046;-87
2021/12/01 12:52:26;;;;;;;9.75;1.10;;;8.00;99.90;;;;;;5065368;28;20084;-88
2021/12/01 12:54:57;;;;;;;9.07;0.68;;;9.20;99.90;;;;;;5047704;28;20044;-86
2021/12/01 12:57:25;;;;;;;13.27;1.58;;;8.00;99.90;;;;;;5051271;28;20447;-86
2021/12/01 13:00:17;;;;;;;8.45;1.13;;;8.60;99.90;;;;;;5084903;28;20145;-86
2021/12/01 13:02:43;;;;;;;9.55;0.93;;;8.00;99.90;;;;;;5066217;28;20358;-85
2021/12/01 13:05:09;;;;;;;10.00;1.20;;;8.00;99.90;;;;;;5051645;28;20056;-81